sensor_id;sensor_type;location;lat;lon;timestamp;P1;durP1;ratioP1;P2;durP2;ratioP2
75209;SDS011;63796;53.136;14.882;2023-02-15T00:00:09;30.20;;;13.10;;
75209;SDS011;63796;53.136;14.882;2023-02-15T00:02:59;34.00;;;14.00;;
75209;SDS011;63796;53.136;14.882;2023-02-15T00:05:26;31.20;;;13.40;;
75209;SDS011;63796;53.136;14.882;2023-02-15T00:07:53;33.40;;;14.10;;
75209;SDS011;63796;53.136;14.882;2023-02-15T00:10:21;33.50;;;15.20;;
75209;SDS011;63796;53.136;14.882;2023-02-15T00:12:50;32.20;;;13.90;;
75209;SDS011;63796;53.136;14.882;2023-02-15T00:15:17;34.00;;;14.90;;
75209;SDS011;63796;53.136;14.882;2023-02-15T00:17:45;33.40;;;13.70;;
75209;SDS011;63796;53.136;14.882;2023-02-15T00:20:12;31.10;;;14.70;;
75209;SDS011;63796;53.136;14.882;2023-02-15T00:22:41;31.10;;;13.70;;
75209;SDS011;63796;53.136;14.882;2023-02-15T00:25:08;32.10;;;13.80;;
75209;SDS011;63796;53.136;14.882;2023-02-15T00:27:35;33.40;;;14.80;;
75209;SDS011;63796;53.136;14.882;2023-02-15T00:30:03;33.60;;;14.60;;
75209;SDS011;63796;53.136;14.882;2023-02-15T00:32:30;34.10;;;15.20;;
75209;SDS011;63796;53.136;14.882;2023-02-15T00:34:58;33.20;;;14.90;;
75209;SDS011;63796;53.136;14.882;2023-02-15T00:37:25;30.80;;;13.70;;
75209;SDS011;63796;53.136;14.882;2023-02-15T00:39:52;29.70;;;13.10;;
75209;SDS011;63796;53.136;14.882;2023-02-15T00:42:20;32.30;;;13.40;;
75209;SDS011;63796;53.136;14.882;2023-02-15T00:44:47;31.40;;;14.30;;
75209;SDS011;63796;53.136;14.882;2023-02-15T00:47:14;33.90;;;14.70;;
75209;SDS011;63796;53.136;14.882;2023-02-15T00:49:41;27.90;;;12.90;;
75209;SDS011;63796;53.136;14.882;2023-02-15T00:52:09;35.80;;;14.40;;
75209;SDS011;63796;53.136;14.882;2023-02-15T00:54:36;33.80;;;14.40;;
75209;SDS011;63796;53.136;14.882;2023-02-15T00:57:05;32.30;;;14.70;;
75209;SDS011;63796;53.136;14.882;2023-02-15T00:59:33;38.60;;;15.10;;
75209;SDS011;63796;53.136;14.882;2023-02-15T01:02:01;30.40;;;14.00;;
75209;SDS011;63796;53.136;14.882;2023-02-15T01:04:28;34.30;;;14.70;;
75209;SDS011;63796;53.136;14.882;2023-02-15T01:06:55;33.50;;;15.00;;
75209;SDS011;63796;53.136;14.882;2023-02-15T01:09:23;35.90;;;15.20;;
75209;SDS011;63796;53.136;14.882;2023-02-15T01:11:50;33.00;;;15.30;;
75209;SDS011;63796;53.136;14.882;2023-02-15T01:14:17;35.70;;;14.80;;
75209;SDS011;63796;53.136;14.882;2023-02-15T01:16:44;35.40;;;14.40;;
75209;SDS011;63796;53.136;14.882;2023-02-15T01:19:12;36.00;;;15.30;;
75209;SDS011;63796;53.136;14.882;2023-02-15T01:21:39;37.60;;;17.00;;
75209;SDS011;63796;53.136;14.882;2023-02-15T01:24:12;38.40;;;16.70;;
75209;SDS011;63796;53.136;14.882;2023-02-15T01:26:40;35.70;;;15.30;;
75209;SDS011;63796;53.136;14.882;2023-02-15T01:29:07;36.40;;;15.50;;
75209;SDS011;63796;53.136;14.882;2023-02-15T01:31:34;33.00;;;16.00;;
75209;SDS011;63796;53.136;14.882;2023-02-15T01:34:01;37.50;;;15.90;;
75209;SDS011;63796;53.136;14.882;2023-02-15T01:36:29;42.50;;;17.40;;
75209;SDS011;63796;53.136;14.882;2023-02-15T01:38:57;41.50;;;17.00;;
75209;SDS011;63796;53.136;14.882;2023-02-15T01:41:24;40.20;;;17.50;;
75209;SDS011;63796;53.136;14.882;2023-02-15T01:43:59;40.10;;;18.20;;
75209;SDS011;63796;53.136;14.882;2023-02-15T01:46:48;39.50;;;15.60;;
75209;SDS011;63796;53.136;14.882;2023-02-15T01:49:19;34.40;;;16.80;;
75209;SDS011;63796;53.136;14.882;2023-02-15T01:51:48;34.60;;;15.50;;
75209;SDS011;63796;53.136;14.882;2023-02-15T01:54:24;37.10;;;16.40;;
75209;SDS011;63796;53.136;14.882;2023-02-15T01:56:55;35.50;;;15.70;;
75209;SDS011;63796;53.136;14.882;2023-02-15T01:59:25;38.00;;;16.70;;
75209;SDS011;63796;53.136;14.882;2023-02-15T02:01:58;41.90;;;17.90;;
75209;SDS011;63796;53.136;14.882;2023-02-15T02:04:41;36.80;;;17.00;;
75209;SDS011;63796;53.136;14.882;2023-02-15T02:07:09;38.40;;;16.00;;
75209;SDS011;63796;53.136;14.882;2023-02-15T02:09:36;39.80;;;16.90;;
75209;SDS011;63796;53.136;14.882;2023-02-15T02:12:04;38.20;;;17.20;;
75209;SDS011;63796;53.136;14.882;2023-02-15T02:14:32;42.40;;;17.40;;
75209;SDS011;63796;53.136;14.882;2023-02-15T02:23:04;37.40;;;15.40;;
75209;SDS011;63796;53.136;14.882;2023-02-15T02:36:52;40.20;;;15.90;;
75209;SDS011;63796;53.136;14.882;2023-02-15T02:39:37;37.60;;;15.70;;
75209;SDS011;63796;53.136;14.882;2023-02-15T02:45:02;38.80;;;16.50;;
75209;SDS011;63796;53.136;14.882;2023-02-15T02:47:42;43.10;;;17.50;;
75209;SDS011;63796;53.136;14.882;2023-02-15T02:50:16;38.50;;;16.60;;
75209;SDS011;63796;53.136;14.882;2023-02-15T02:52:49;40.60;;;17.00;;
75209;SDS011;63796;53.136;14.882;2023-02-15T02:55:30;39.90;;;15.70;;
75209;SDS011;63796;53.136;14.882;2023-02-15T02:58:03;35.70;;;14.70;;
75209;SDS011;63796;53.136;14.882;2023-02-15T03:00:42;44.20;;;16.50;;
75209;SDS011;63796;53.136;14.882;2023-02-15T03:03:14;36.90;;;16.40;;
75209;SDS011;63796;53.136;14.882;2023-02-15T03:05:46;38.40;;;16.50;;
75209;SDS011;63796;53.136;14.882;2023-02-15T03:08:16;36.30;;;15.70;;
75209;SDS011;63796;53.136;14.882;2023-02-15T03:10:52;39.70;;;15.80;;
75209;SDS011;63796;53.136;14.882;2023-02-15T03:13:21;39.10;;;16.20;;
75209;SDS011;63796;53.136;14.882;2023-02-15T03:15:50;37.00;;;15.60;;
75209;SDS011;63796;53.136;14.882;2023-02-15T03:18:45;41.00;;;16.50;;
75209;SDS011;63796;53.136;14.882;2023-02-15T03:21:27;38.60;;;15.70;;
75209;SDS011;63796;53.136;14.882;2023-02-15T03:24:08;37.10;;;16.80;;
75209;SDS011;63796;53.136;14.882;2023-02-15T03:26:37;35.40;;;15.20;;
75209;SDS011;63796;53.136;14.882;2023-02-15T03:29:06;40.10;;;16.30;;
75209;SDS011;63796;53.136;14.882;2023-02-15T03:31:38;37.80;;;17.30;;
75209;SDS011;63796;53.136;14.882;2023-02-15T03:34:10;38.00;;;15.60;;
75209;SDS011;63796;53.136;14.882;2023-02-15T03:36:50;35.80;;;15.60;;
75209;SDS011;63796;53.136;14.882;2023-02-15T03:39:36;36.90;;;15.50;;
75209;SDS011;63796;53.136;14.882;2023-02-15T03:47:18;39.60;;;15.60;;
75209;SDS011;63796;53.136;14.882;2023-02-15T03:50:00;38.80;;;15.50;;
75209;SDS011;63796;53.136;14.882;2023-02-15T03:52:29;35.80;;;14.70;;
75209;SDS011;63796;53.136;14.882;2023-02-15T03:54:58;39.10;;;16.40;;
75209;SDS011;63796;53.136;14.882;2023-02-15T03:57:27;43.10;;;17.20;;
75209;SDS011;63796;53.136;14.882;2023-02-15T04:00:24;43.90;;;16.40;;
75209;SDS011;63796;53.136;14.882;2023-02-15T04:05:55;38.80;;;16.30;;
75209;SDS011;63796;53.136;14.882;2023-02-15T04:08:23;35.60;;;15.10;;
75209;SDS011;63796;53.136;14.882;2023-02-15T04:11:10;39.40;;;17.00;;
75209;SDS011;63796;53.136;14.882;2023-02-15T04:13:37;35.90;;;15.70;;
75209;SDS011;63796;53.136;14.882;2023-02-15T04:16:05;37.50;;;15.70;;
75209;SDS011;63796;53.136;14.882;2023-02-15T04:18:38;40.40;;;16.10;;
75209;SDS011;63796;53.136;14.882;2023-02-15T04:21:25;38.40;;;16.70;;
75209;SDS011;63796;53.136;14.882;2023-02-15T04:24:12;36.10;;;14.50;;
75209;SDS011;63796;53.136;14.882;2023-02-15T04:26:59;40.40;;;15.40;;
75209;SDS011;63796;53.136;14.882;2023-02-15T04:29:27;36.40;;;16.10;;
75209;SDS011;63796;53.136;14.882;2023-02-15T04:31:57;35.70;;;15.00;;
75209;SDS011;63796;53.136;14.882;2023-02-15T04:34:25;39.00;;;15.40;;
75209;SDS011;63796;53.136;14.882;2023-02-15T04:36:53;35.20;;;17.30;;
75209;SDS011;63796;53.136;14.882;2023-02-15T04:39:20;38.00;;;17.30;;
75209;SDS011;63796;53.136;14.882;2023-02-15T04:41:47;40.80;;;16.60;;
75209;SDS011;63796;53.136;14.882;2023-02-15T04:44:15;43.50;;;16.90;;
75209;SDS011;63796;53.136;14.882;2023-02-15T04:46:42;35.80;;;15.30;;
75209;SDS011;63796;53.136;14.882;2023-02-15T04:49:09;42.50;;;16.50;;
75209;SDS011;63796;53.136;14.882;2023-02-15T04:51:37;42.60;;;19.10;;
75209;SDS011;63796;53.136;14.882;2023-02-15T04:54:04;41.40;;;16.80;;
75209;SDS011;63796;53.136;14.882;2023-02-15T04:56:32;41.90;;;15.80;;
75209;SDS011;63796;53.136;14.882;2023-02-15T04:59:01;45.80;;;18.80;;
75209;SDS011;63796;53.136;14.882;2023-02-15T05:01:28;56.10;;;21.70;;
75209;SDS011;63796;53.136;14.882;2023-02-15T05:03:56;61.80;;;22.10;;
75209;SDS011;63796;53.136;14.882;2023-02-15T05:06:23;48.90;;;19.90;;
75209;SDS011;63796;53.136;14.882;2023-02-15T05:08:51;46.60;;;18.50;;
75209;SDS011;63796;53.136;14.882;2023-02-15T05:11:18;39.50;;;17.30;;
75209;SDS011;63796;53.136;14.882;2023-02-15T05:13:46;42.30;;;16.80;;
75209;SDS011;63796;53.136;14.882;2023-02-15T05:16:13;44.90;;;17.80;;
75209;SDS011;63796;53.136;14.882;2023-02-15T05:18:41;44.30;;;16.80;;
75209;SDS011;63796;53.136;14.882;2023-02-15T05:21:08;49.10;;;17.50;;
75209;SDS011;63796;53.136;14.882;2023-02-15T05:23:36;44.80;;;17.50;;
75209;SDS011;63796;53.136;14.882;2023-02-15T05:26:03;38.20;;;16.50;;
75209;SDS011;63796;53.136;14.882;2023-02-15T05:28:49;38.90;;;17.10;;
75209;SDS011;63796;53.136;14.882;2023-02-15T05:31:17;37.80;;;17.20;;
75209;SDS011;63796;53.136;14.882;2023-02-15T05:33:46;41.00;;;17.60;;
75209;SDS011;63796;53.136;14.882;2023-02-15T05:36:13;40.80;;;17.80;;
75209;SDS011;63796;53.136;14.882;2023-02-15T05:38:41;39.60;;;18.00;;
75209;SDS011;63796;53.136;14.882;2023-02-15T05:41:09;41.10;;;17.70;;
75209;SDS011;63796;53.136;14.882;2023-02-15T05:43:38;39.80;;;17.40;;
75209;SDS011;63796;53.136;14.882;2023-02-15T05:46:06;41.40;;;18.00;;
75209;SDS011;63796;53.136;14.882;2023-02-15T05:48:34;46.10;;;18.80;;
75209;SDS011;63796;53.136;14.882;2023-02-15T05:51:06;40.90;;;17.40;;
75209;SDS011;63796;53.136;14.882;2023-02-15T05:53:36;49.10;;;18.70;;
75209;SDS011;63796;53.136;14.882;2023-02-15T05:56:07;37.70;;;16.80;;
75209;SDS011;63796;53.136;14.882;2023-02-15T05:58:37;41.20;;;16.70;;
75209;SDS011;63796;53.136;14.882;2023-02-15T06:01:16;42.20;;;18.50;;
75209;SDS011;63796;53.136;14.882;2023-02-15T06:03:45;43.20;;;17.70;;
75209;SDS011;63796;53.136;14.882;2023-02-15T06:06:13;42.90;;;17.70;;
75209;SDS011;63796;53.136;14.882;2023-02-15T06:08:40;40.90;;;18.00;;
75209;SDS011;63796;53.136;14.882;2023-02-15T06:11:08;41.80;;;17.80;;
75209;SDS011;63796;53.136;14.882;2023-02-15T06:13:36;42.70;;;18.00;;
75209;SDS011;63796;53.136;14.882;2023-02-15T06:16:06;38.30;;;16.50;;
75209;SDS011;63796;53.136;14.882;2023-02-15T06:18:34;40.50;;;16.70;;
75209;SDS011;63796;53.136;14.882;2023-02-15T06:21:01;39.70;;;17.40;;
75209;SDS011;63796;53.136;14.882;2023-02-15T06:23:29;38.30;;;16.50;;
75209;SDS011;63796;53.136;14.882;2023-02-15T06:25:56;41.30;;;17.50;;
75209;SDS011;63796;53.136;14.882;2023-02-15T06:28:24;45.50;;;15.90;;
75209;SDS011;63796;53.136;14.882;2023-02-15T06:30:52;35.30;;;15.40;;
75209;SDS011;63796;53.136;14.882;2023-02-15T06:33:22;40.80;;;16.60;;
75209;SDS011;63796;53.136;14.882;2023-02-15T06:35:50;43.70;;;17.20;;
75209;SDS011;63796;53.136;14.882;2023-02-15T06:38:17;37.20;;;16.10;;
75209;SDS011;63796;53.136;14.882;2023-02-15T06:40:45;37.90;;;15.90;;
75209;SDS011;63796;53.136;14.882;2023-02-15T06:43:12;40.00;;;17.30;;
75209;SDS011;63796;53.136;14.882;2023-02-15T06:45:40;39.00;;;16.00;;
75209;SDS011;63796;53.136;14.882;2023-02-15T06:48:08;35.50;;;15.70;;
75209;SDS011;63796;53.136;14.882;2023-02-15T06:50:35;37.80;;;15.70;;
75209;SDS011;63796;53.136;14.882;2023-02-15T06:53:02;34.80;;;15.80;;
75209;SDS011;63796;53.136;14.882;2023-02-15T06:55:30;37.50;;;16.50;;
75209;SDS011;63796;53.136;14.882;2023-02-15T06:57:57;36.30;;;15.30;;
75209;SDS011;63796;53.136;14.882;2023-02-15T07:00:25;35.60;;;16.80;;
75209;SDS011;63796;53.136;14.882;2023-02-15T07:02:56;42.50;;;17.00;;
75209;SDS011;63796;53.136;14.882;2023-02-15T07:05:26;38.20;;;16.00;;
75209;SDS011;63796;53.136;14.882;2023-02-15T07:07:58;38.70;;;16.70;;
75209;SDS011;63796;53.136;14.882;2023-02-15T07:10:27;33.40;;;15.40;;
75209;SDS011;63796;53.136;14.882;2023-02-15T07:12:54;41.50;;;17.00;;
75209;SDS011;63796;53.136;14.882;2023-02-15T07:15:22;41.80;;;17.80;;
75209;SDS011;63796;53.136;14.882;2023-02-15T07:17:50;35.10;;;17.10;;
75209;SDS011;63796;53.136;14.882;2023-02-15T07:20:19;38.50;;;16.60;;
75209;SDS011;63796;53.136;14.882;2023-02-15T07:22:47;35.40;;;17.20;;
75209;SDS011;63796;53.136;14.882;2023-02-15T07:25:16;37.30;;;17.20;;
75209;SDS011;63796;53.136;14.882;2023-02-15T07:27:43;36.10;;;16.50;;
75209;SDS011;63796;53.136;14.882;2023-02-15T07:30:14;35.30;;;16.60;;
75209;SDS011;63796;53.136;14.882;2023-02-15T07:32:42;34.90;;;16.60;;
75209;SDS011;63796;53.136;14.882;2023-02-15T07:35:32;39.30;;;16.90;;
75209;SDS011;63796;53.136;14.882;2023-02-15T07:38:00;37.30;;;17.20;;
75209;SDS011;63796;53.136;14.882;2023-02-15T07:40:31;35.20;;;16.80;;
75209;SDS011;63796;53.136;14.882;2023-02-15T07:42:58;36.20;;;17.30;;
75209;SDS011;63796;53.136;14.882;2023-02-15T07:45:26;36.80;;;17.10;;
75209;SDS011;63796;53.136;14.882;2023-02-15T07:47:54;35.30;;;16.30;;
75209;SDS011;63796;53.136;14.882;2023-02-15T07:50:21;39.20;;;17.30;;
75209;SDS011;63796;53.136;14.882;2023-02-15T07:52:48;37.40;;;16.90;;
75209;SDS011;63796;53.136;14.882;2023-02-15T07:55:16;38.10;;;16.90;;
75209;SDS011;63796;53.136;14.882;2023-02-15T07:57:44;40.40;;;18.30;;
75209;SDS011;63796;53.136;14.882;2023-02-15T08:00:19;41.30;;;18.30;;
75209;SDS011;63796;53.136;14.882;2023-02-15T08:02:49;42.00;;;18.90;;
75209;SDS011;63796;53.136;14.882;2023-02-15T08:05:41;37.20;;;17.50;;
75209;SDS011;63796;53.136;14.882;2023-02-15T08:08:11;38.70;;;17.80;;
75209;SDS011;63796;53.136;14.882;2023-02-15T08:11:18;43.30;;;19.70;;
75209;SDS011;63796;53.136;14.882;2023-02-15T08:18:57;40.20;;;18.10;;
75209;SDS011;63796;53.136;14.882;2023-02-15T08:21:27;40.70;;;18.50;;
75209;SDS011;63796;53.136;14.882;2023-02-15T08:23:56;40.00;;;19.10;;
75209;SDS011;63796;53.136;14.882;2023-02-15T08:26:24;40.10;;;19.60;;
75209;SDS011;63796;53.136;14.882;2023-02-15T08:28:51;41.70;;;20.10;;
75209;SDS011;63796;53.136;14.882;2023-02-15T08:31:19;41.60;;;18.30;;
75209;SDS011;63796;53.136;14.882;2023-02-15T08:33:48;42.10;;;20.70;;
75209;SDS011;63796;53.136;14.882;2023-02-15T08:36:20;45.10;;;20.70;;
75209;SDS011;63796;53.136;14.882;2023-02-15T08:38:47;44.10;;;20.70;;
75209;SDS011;63796;53.136;14.882;2023-02-15T08:41:23;42.30;;;20.50;;
75209;SDS011;63796;53.136;14.882;2023-02-15T08:43:56;43.20;;;20.30;;
75209;SDS011;63796;53.136;14.882;2023-02-15T08:46:27;41.30;;;20.80;;
75209;SDS011;63796;53.136;14.882;2023-02-15T08:49:09;42.80;;;21.00;;
75209;SDS011;63796;53.136;14.882;2023-02-15T08:51:38;43.20;;;21.20;;
75209;SDS011;63796;53.136;14.882;2023-02-15T08:54:09;43.50;;;20.50;;
75209;SDS011;63796;53.136;14.882;2023-02-15T08:56:40;42.60;;;18.80;;
75209;SDS011;63796;53.136;14.882;2023-02-15T08:59:12;45.00;;;20.60;;
75209;SDS011;63796;53.136;14.882;2023-02-15T09:01:40;42.30;;;22.00;;
75209;SDS011;63796;53.136;14.882;2023-02-15T09:04:08;44.40;;;22.70;;
75209;SDS011;63796;53.136;14.882;2023-02-15T09:06:37;39.90;;;19.20;;
75209;SDS011;63796;53.136;14.882;2023-02-15T09:09:06;45.10;;;24.30;;
75209;SDS011;63796;53.136;14.882;2023-02-15T09:11:39;47.00;;;25.20;;
75209;SDS011;63796;53.136;14.882;2023-02-15T09:14:10;46.10;;;23.70;;
75209;SDS011;63796;53.136;14.882;2023-02-15T09:16:42;49.70;;;25.60;;
75209;SDS011;63796;53.136;14.882;2023-02-15T09:19:13;39.40;;;23.10;;
75209;SDS011;63796;53.136;14.882;2023-02-15T09:21:40;42.40;;;24.30;;
75209;SDS011;63796;53.136;14.882;2023-02-15T09:24:10;42.80;;;25.00;;
75209;SDS011;63796;53.136;14.882;2023-02-15T09:26:40;46.90;;;26.70;;
75209;SDS011;63796;53.136;14.882;2023-02-15T09:29:10;43.20;;;25.20;;
75209;SDS011;63796;53.136;14.882;2023-02-15T09:31:45;42.70;;;24.70;;
75209;SDS011;63796;53.136;14.882;2023-02-15T09:34:15;40.10;;;27.40;;
75209;SDS011;63796;53.136;14.882;2023-02-15T09:36:44;40.20;;;26.30;;
